createdAt,value
2023-05-09T00:00:49.221Z,94482.34
2023-05-09T00:03:16.119Z,94489.28
2023-05-09T00:05:43.002Z,94493.06
2023-05-09T00:08:09.782Z,94488.25
2023-05-09T00:10:37.482Z,94487.66
2023-05-09T00:13:04.381Z,94489.09
2023-05-09T00:15:32.178Z,94479.13
2023-05-09T00:17:59.462Z,94486.44
2023-05-09T00:20:26.413Z,94485.09
2023-05-09T00:22:53.226Z,94481.69
2023-05-09T00:25:20.056Z,94473.88
2023-05-09T00:27:46.825Z,94473.72
2023-05-09T00:30:13.786Z,94473.06
2023-05-09T00:32:41.585Z,94477.72
2023-05-09T00:35:13.163Z,94475.69
2023-05-09T00:37:40.067Z,94471.59
2023-05-09T00:40:07.794Z,94471.69
2023-05-09T00:42:35.548Z,94465.34
2023-05-09T00:45:02.832Z,94465.13
2023-05-09T00:47:29.805Z,94460.34
2023-05-09T00:49:58.293Z,94459.03
2023-05-09T00:52:26.186Z,94463.22
2023-05-09T00:54:54.306Z,94462.94
2023-05-09T00:57:21.899Z,94461.78
2023-05-09T00:59:49.276Z,94447.75
2023-05-09T01:02:17.492Z,94457.31
2023-05-09T01:04:45.738Z,94446.47
2023-05-09T01:07:24.834Z,94454.28
2023-05-09T01:10:03.101Z,94447.63
2023-05-09T01:12:50.155Z,94448.84
2023-05-09T01:15:31.664Z,94446.84
2023-05-09T01:18:01.717Z,94442.28
2023-05-09T01:20:47.083Z,94445.56
2023-05-09T01:23:44.399Z,94445.31
2023-05-09T01:26:48.101Z,94442.47
2023-05-09T01:29:23.951Z,94445.44
2023-05-09T01:31:51.356Z,94442.09
2023-05-09T01:34:18.554Z,94441.84
2023-05-09T01:36:45.996Z,94441.53
2023-05-09T01:39:14.069Z,94441.84
2023-05-09T01:41:40.943Z,94441.03
2023-05-09T01:44:11.614Z,94434.63
2023-05-09T01:46:39.754Z,94437.22
2023-05-09T01:49:09.153Z,94437.94
2023-05-09T01:51:37.191Z,94440.09
2023-05-09T01:54:04.826Z,94446.91
2023-05-09T01:56:32.504Z,94443.34
2023-05-09T01:59:00.170Z,94436.91
2023-05-09T02:01:27.267Z,94438.13
2023-05-09T02:03:54.635Z,94426.22
2023-05-09T02:06:23.547Z,94436.97
2023-05-09T02:08:50.590Z,94438.00
2023-05-09T02:11:17.384Z,94438.22
2023-05-09T02:13:44.251Z,94433.56
2023-05-09T02:16:12.338Z,94432.94
2023-05-09T02:18:39.484Z,94417.53
2023-05-09T02:21:06.428Z,94430.19
2023-05-09T02:23:33.240Z,94425.78
2023-05-09T02:26:00.076Z,94428.38
2023-05-09T02:28:27.703Z,94428.63
2023-05-09T02:30:55.781Z,94421.59
2023-05-09T02:33:23.181Z,94425.44
2023-05-09T02:35:50.642Z,94422.25
2023-05-09T02:38:18.035Z,94424.28
2023-05-09T02:40:47.726Z,94423.53
2023-05-09T02:43:15.384Z,94425.50
2023-05-09T02:45:42.472Z,94422.69
2023-05-09T02:48:09.509Z,94418.28
2023-05-09T02:50:38.568Z,94424.63
2023-05-09T02:53:06.297Z,94421.72
2023-05-09T02:55:33.186Z,94424.91
2023-05-09T02:58:12.832Z,94422.63
2023-05-09T03:00:41.290Z,94426.81
2023-05-09T03:03:08.148Z,94415.94
2023-05-09T03:05:35.184Z,94423.16
2023-05-09T03:08:01.982Z,94420.88
2023-05-09T03:10:28.726Z,94410.09
2023-05-09T03:12:55.937Z,94410.09
2023-05-09T03:15:23.136Z,94410.31
2023-05-09T03:17:50.019Z,94413.50
2023-05-09T03:20:17.069Z,94409.16
2023-05-09T03:22:44.011Z,94400.34
2023-05-09T03:25:10.810Z,94396.59
2023-05-09T03:27:37.566Z,94400.66
2023-05-09T03:30:04.832Z,94392.75
2023-05-09T03:32:31.681Z,94402.16
2023-05-09T03:34:58.510Z,94400.13
2023-05-09T03:37:27.058Z,94400.34
2023-05-09T03:39:54.169Z,94404.91
2023-05-09T03:42:21.554Z,94397.88
2023-05-09T03:44:48.382Z,94394.78
2023-05-09T03:47:15.143Z,94390.34
2023-05-09T03:49:41.934Z,94392.53
2023-05-09T03:52:08.947Z,94393.91
2023-05-09T03:54:35.736Z,94393.69
2023-05-09T03:57:02.563Z,94392.53
2023-05-09T03:59:29.431Z,94391.31
2023-05-09T04:01:56.284Z,94387.22
2023-05-09T04:04:23.143Z,94397.41
2023-05-09T04:06:49.945Z,94396.22
2023-05-09T04:09:16.980Z,94407.78
2023-05-09T04:11:43.854Z,94400.41
2023-05-09T04:14:10.791Z,94405.09
2023-05-09T04:16:37.503Z,94400.47
2023-05-09T04:19:04.610Z,94397.88
2023-05-09T04:21:32.098Z,94407.06
2023-05-09T04:23:58.872Z,94397.44
2023-05-09T04:26:25.927Z,94373.91
2023-05-09T04:28:53.027Z,94397.81
2023-05-09T04:31:19.758Z,94386.63
2023-05-09T04:33:46.622Z,94395.13
2023-05-09T04:36:13.431Z,94397.72
2023-05-09T04:38:40.202Z,94403.94
2023-05-09T04:41:07.261Z,94397.41
2023-05-09T04:43:34.256Z,94396.94
2023-05-09T04:46:01.475Z,94397.09
2023-05-09T04:48:29.634Z,94398.09
2023-05-09T04:50:56.563Z,94401.06
2023-05-09T04:53:23.369Z,94401.34
2023-05-09T04:55:50.188Z,94390.94
2023-05-09T04:58:16.902Z,94383.72
2023-05-09T05:00:43.605Z,94386.84
2023-05-09T05:03:10.356Z,94387.34
2023-05-09T05:05:37.706Z,94385.41
2023-05-09T05:08:04.907Z,94387.63
2023-05-09T05:10:31.736Z,94386.03
2023-05-09T05:12:58.501Z,94389.00
2023-05-09T05:15:26.953Z,94388.56
2023-05-09T05:17:53.727Z,94394.53
2023-05-09T05:20:21.303Z,94383.78
2023-05-09T05:22:48.090Z,94388.03
2023-05-09T05:25:15.237Z,94395.25
2023-05-09T05:27:42.369Z,94386.72
2023-05-09T05:30:09.977Z,94399.31
2023-05-09T05:32:36.797Z,94392.66
2023-05-09T05:35:05.088Z,94391.66
2023-05-09T05:37:32.020Z,94397.47
2023-05-09T05:39:58.881Z,94395.44
2023-05-09T05:42:25.713Z,94397.72
2023-05-09T05:44:52.712Z,94410.97
2023-05-09T05:47:19.367Z,94412.69
2023-05-09T05:49:46.642Z,94413.25
2023-05-09T05:52:13.358Z,94411.66
2023-05-09T05:54:40.303Z,94405.91
2023-05-09T05:57:08.404Z,94406.34
2023-05-09T05:59:35.332Z,94408.94
2023-05-09T06:02:02.781Z,94408.50
2023-05-09T06:04:29.717Z,94416.66
2023-05-09T06:06:56.559Z,94414.63
2023-05-09T06:09:23.305Z,94411.31
2023-05-09T06:11:50.148Z,94410.97
2023-05-09T06:14:16.868Z,94400.31
2023-05-09T06:16:43.711Z,94402.44
2023-05-09T06:19:10.591Z,94396.28
2023-05-09T06:21:37.386Z,94399.38
2023-05-09T06:24:11.792Z,94396.91
2023-05-09T06:26:43.849Z,94386.22
2023-05-09T06:29:10.965Z,94392.69
2023-05-09T06:31:39.118Z,94400.53
2023-05-09T06:34:06.372Z,94392.34
2023-05-09T06:36:33.710Z,94397.53
2023-05-09T06:39:00.648Z,94394.84
2023-05-09T06:41:27.565Z,94390.16
2023-05-09T06:43:54.428Z,94390.63
2023-05-09T06:46:21.259Z,94389.19
2023-05-09T06:48:48.109Z,94388.53
2023-05-09T06:51:14.960Z,94387.53
2023-05-09T06:53:41.762Z,94378.69
2023-05-09T06:56:08.526Z,94389.47
2023-05-09T06:58:35.386Z,94381.19
2023-05-09T07:01:02.311Z,94381.72
2023-05-09T07:03:29.244Z,94384.34
2023-05-09T07:05:58.989Z,94382.44
2023-05-09T07:08:26.918Z,94380.63
2023-05-09T07:10:53.698Z,94375.84
2023-05-09T07:13:20.586Z,94375.47
2023-05-09T07:15:47.547Z,94375.91
2023-05-09T07:18:14.354Z,94375.47
2023-05-09T07:20:41.345Z,94374.06
2023-05-09T07:23:08.282Z,94366.09
2023-05-09T07:25:35.075Z,94369.50
2023-05-09T07:28:01.895Z,94372.91
2023-05-09T07:30:28.637Z,94353.66
2023-05-09T07:32:55.421Z,94362.34
2023-05-09T07:35:22.348Z,94357.22
2023-05-09T07:37:49.090Z,94345.47
2023-05-09T07:40:16.224Z,94340.88
2023-05-09T07:42:49.771Z,94336.13
2023-05-09T07:45:17.939Z,94335.22
2023-05-09T07:47:45.707Z,94327.72
2023-05-09T07:50:12.747Z,94330.06
2023-05-09T07:52:39.593Z,94326.56
2023-05-09T07:55:06.795Z,94319.53
2023-05-09T07:57:33.681Z,94322.94
2023-05-09T08:00:00.586Z,94331.16
2023-05-09T08:02:27.442Z,94314.91
2023-05-09T08:04:54.385Z,94316.94
2023-05-09T08:07:21.238Z,94309.97
2023-05-09T08:09:48.105Z,94309.25
2023-05-09T08:12:14.894Z,94308.72
2023-05-09T08:14:41.758Z,94301.84
2023-05-09T08:17:08.524Z,94293.19
2023-05-09T08:19:35.260Z,94295.31
2023-05-09T08:22:02.094Z,94291.63
2023-05-09T08:24:29.513Z,94286.09
2023-05-09T08:26:56.358Z,94289.78
2023-05-09T08:29:23.133Z,94277.69
2023-05-09T08:31:49.960Z,94286.09
2023-05-09T08:34:16.948Z,94274.97
2023-05-09T08:36:45.722Z,94274.28
2023-05-09T08:39:12.498Z,94271.25
2023-05-09T08:41:39.328Z,94267.94
2023-05-09T08:44:06.271Z,94268.19
2023-05-09T08:46:36.858Z,94267.94
2023-05-09T08:49:06.461Z,94259.00
2023-05-09T08:51:33.362Z,94254.53
2023-05-09T08:54:00.175Z,94254.28
2023-05-09T08:56:27.120Z,94257.69
2023-05-09T08:58:54.494Z,94248.47
2023-05-09T09:01:21.746Z,94247.13
2023-05-09T09:03:49.654Z,94251.34
2023-05-09T09:06:17.216Z,94246.66
2023-05-09T09:08:44.676Z,94243.72
2023-05-09T09:11:13.664Z,94243.44
2023-05-09T09:13:41.310Z,94237.41
2023-05-09T09:16:10.216Z,94237.13
2023-05-09T09:18:39.491Z,94234.47
2023-05-09T09:21:07.831Z,94227.13
2023-05-09T09:23:34.926Z,94214.75
2023-05-09T09:26:04.492Z,94216.72
2023-05-09T09:28:31.667Z,94210.91
2023-05-09T09:30:58.465Z,94206.25
2023-05-09T09:33:27.082Z,94207.38
2023-05-09T09:35:55.092Z,94207.41
2023-05-09T09:38:23.170Z,94197.22
2023-05-09T09:40:56.789Z,94199.41
2023-05-09T09:43:31.287Z,94194.13
2023-05-09T09:46:02.080Z,94183.44
2023-05-09T09:48:36.366Z,94185.53
2023-05-09T09:51:13.148Z,94177.50
2023-05-09T09:53:41.471Z,94180.91
2023-05-09T09:56:08.601Z,94168.75
2023-05-09T09:58:35.730Z,94176.41
2023-05-09T10:01:07.569Z,94167.16
2023-05-09T10:03:42.302Z,94161.44
2023-05-09T10:06:13.514Z,94164.28
2023-05-09T10:08:41.632Z,94152.78
2023-05-09T10:11:09.613Z,94145.06
2023-05-09T10:13:38.571Z,94156.06
2023-05-09T10:16:06.363Z,94144.44
2023-05-09T10:18:33.936Z,94150.28
2023-05-09T10:21:05.356Z,94134.72
2023-05-09T10:23:34.925Z,94142.84
2023-05-09T10:26:17.909Z,94135.22
2023-05-09T10:28:47.691Z,94121.41
2023-05-09T10:31:27.161Z,94122.53
2023-05-09T10:33:54.427Z,94110.66
2023-05-09T10:36:22.524Z,94104.88
2023-05-09T10:38:50.304Z,94100.53
2023-05-09T10:41:19.053Z,94097.91
2023-05-09T10:43:46.319Z,94087.72
2023-05-09T10:46:13.713Z,94090.63
2023-05-09T10:48:42.278Z,94084.75
2023-05-09T10:51:09.369Z,94080.75
2023-05-09T10:53:50.181Z,94084.69
2023-05-09T10:56:29.722Z,94081.41
2023-05-09T10:58:56.685Z,94070.69
2023-05-09T11:01:37.656Z,94072.44
2023-05-09T11:04:17.350Z,94071.59
2023-05-09T11:06:55.141Z,94065.97
2023-05-09T11:09:33.571Z,94063.59
2023-05-09T11:12:06.186Z,94060.91
2023-05-09T11:14:39.665Z,94051.81
2023-05-09T11:17:26.366Z,94054.84
2023-05-09T11:19:53.094Z,94038.72
2023-05-09T11:22:21.610Z,94043.88
2023-05-09T11:24:54.233Z,94043.31
2023-05-09T11:27:23.112Z,94034.13
2023-05-09T11:29:57.519Z,94035.47
2023-05-09T11:32:35.423Z,94026.47
2023-05-09T11:35:10.568Z,94020.16
2023-05-09T11:38:04.970Z,94020.16
2023-05-09T11:40:32.904Z,94011.84
2023-05-09T11:43:00.778Z,94014.63
2023-05-09T11:45:30.162Z,94001.41
2023-05-09T11:47:57.526Z,93996.03
2023-05-09T11:50:24.745Z,93998.78
2023-05-09T11:52:52.160Z,93988.81
2023-05-09T11:55:30.547Z,93999.97
2023-05-09T11:57:57.467Z,93989.31
2023-05-09T12:00:26.376Z,93979.84
2023-05-09T12:02:54.136Z,93978.69
2023-05-09T12:05:22.983Z,93979.66
2023-05-09T12:07:50.356Z,93983.38
2023-05-09T12:10:21.332Z,93974.19
2023-05-09T12:12:51.289Z,93972.31
2023-05-09T12:15:19.250Z,93977.63
2023-05-09T12:17:47.688Z,93975.94
2023-05-09T12:20:16.546Z,93972.44
2023-05-09T12:22:44.073Z,93968.72
2023-05-09T12:25:12.313Z,93966.41
2023-05-09T12:27:40.240Z,93958.59
2023-05-09T12:30:12.131Z,93946.75
2023-05-09T12:32:40.609Z,93950.91
2023-05-09T12:35:09.654Z,93947.66
2023-05-09T12:37:36.641Z,93954.28
2023-05-09T12:40:12.619Z,93953.50
2023-05-09T12:42:39.664Z,93946.66
2023-05-09T12:45:09.567Z,93939.03
2023-05-09T12:47:39.078Z,93940.56
2023-05-09T12:50:07.253Z,93935.97
2023-05-09T12:52:50.206Z,93924.31
2023-05-09T12:55:25.480Z,93922.53
2023-05-09T12:58:03.728Z,93922.25
2023-05-09T13:00:44.722Z,93927.03
2023-05-09T13:03:27.544Z,93931.56
2023-05-09T13:05:58.567Z,93919.28
2023-05-09T13:08:25.640Z,93911.06
2023-05-09T13:11:00.632Z,93913.28
2023-05-09T13:13:31.540Z,93893.94
2023-05-09T13:15:58.457Z,93897.03
2023-05-09T13:18:25.265Z,93899.22
2023-05-09T13:20:52.146Z,93887.91
2023-05-09T13:23:18.998Z,93888.81
2023-05-09T13:25:45.817Z,93890.53
2023-05-09T13:28:12.538Z,93884.22
2023-05-09T13:30:39.624Z,93885.66
2023-05-09T13:33:16.695Z,93886.44
2023-05-09T13:35:51.776Z,93872.44
2023-05-09T13:38:18.520Z,93878.38
2023-05-09T13:40:45.266Z,93873.31
2023-05-09T13:43:12.088Z,93860.94
2023-05-09T13:45:38.852Z,93880.56
2023-05-09T13:48:05.979Z,93867.72
2023-05-09T13:50:33.943Z,93867.22
2023-05-09T13:53:00.834Z,93876.28
2023-05-09T13:55:27.884Z,93865.22
2023-05-09T13:57:55.052Z,93863.91
2023-05-09T14:00:22.358Z,93858.59
2023-05-09T14:02:49.133Z,93861.16
2023-05-09T14:05:17.098Z,93855.13
2023-05-09T14:07:44.128Z,93853.56
2023-05-09T14:10:12.440Z,93846.41
2023-05-09T14:12:44.585Z,93848.16
2023-05-09T14:15:11.549Z,93848.38
2023-05-09T14:17:38.422Z,93841.53
2023-05-09T14:20:06.617Z,93845.47
2023-05-09T14:22:33.402Z,93838.88
2023-05-09T14:25:00.444Z,93841.53
2023-05-09T14:27:27.646Z,93829.50
2023-05-09T14:29:54.508Z,93834.38
2023-05-09T14:32:21.304Z,93832.84
2023-05-09T14:34:49.796Z,93835.25
2023-05-09T14:37:16.979Z,93829.13
2023-05-09T14:39:45.281Z,93831.63
2023-05-09T14:42:14.310Z,93828.72
2023-05-09T14:44:42.075Z,93825.38
2023-05-09T14:47:09.701Z,93821.56
2023-05-09T14:49:37.977Z,93822.84
2023-05-09T14:52:04.828Z,93836.19
2023-05-09T14:54:31.821Z,93821.53
2023-05-09T14:56:59.648Z,93820.75
2023-05-09T14:59:26.480Z,93816.44
2023-05-09T15:01:53.863Z,93825.69
2023-05-09T15:04:20.754Z,93818.34
2023-05-09T15:06:47.987Z,93818.28
2023-05-09T15:09:14.862Z,93812.50
2023-05-09T15:11:48.202Z,93822.22
2023-05-09T15:14:16.706Z,93821.69
2023-05-09T15:16:43.835Z,93813.53
2023-05-09T15:19:10.633Z,93814.34
2023-05-09T15:21:37.505Z,93810.50
2023-05-09T15:24:05.118Z,93816.69
2023-05-09T15:26:32.416Z,93814.00
2023-05-09T15:28:59.409Z,93818.94
2023-05-09T15:31:26.388Z,93814.56
2023-05-09T15:33:53.412Z,93818.28
2023-05-09T15:36:20.178Z,93826.69
2023-05-09T15:38:49.709Z,93814.34
2023-05-09T15:41:17.087Z,93821.59
2023-05-09T15:43:44.032Z,93815.19
2023-05-09T15:46:11.200Z,93814.97
2023-05-09T15:48:38.120Z,93827.09
2023-05-09T15:51:05.196Z,93835.94
2023-05-09T15:53:32.065Z,93818.22
2023-05-09T15:55:58.916Z,93822.53
2023-05-09T15:58:25.881Z,93831.13
2023-05-09T16:00:52.613Z,93819.47
2023-05-09T16:03:19.930Z,93825.19
2023-05-09T16:05:46.730Z,93821.25
2023-05-09T16:08:13.556Z,93825.38
2023-05-09T16:10:40.944Z,93825.59
2023-05-09T16:13:08.437Z,93817.91
2023-05-09T16:15:35.662Z,93828.19
2023-05-09T16:18:02.415Z,93815.84
2023-05-09T16:20:29.314Z,93820.47
2023-05-09T16:22:56.073Z,93825.69
2023-05-09T16:25:22.951Z,93819.28
2023-05-09T16:27:49.647Z,93814.59
2023-05-09T16:30:16.639Z,93811.97
2023-05-09T16:32:43.874Z,93807.56
2023-05-09T16:35:10.627Z,93817.03
2023-05-09T16:37:37.592Z,93814.41
2023-05-09T16:40:04.921Z,93823.66
2023-05-09T16:42:31.839Z,93824.09
2023-05-09T16:44:58.700Z,93825.09
2023-05-09T16:47:25.707Z,93827.28
2023-05-09T16:49:52.497Z,93830.00
2023-05-09T16:52:19.225Z,93824.78
2023-05-09T16:54:45.889Z,93824.31
2023-05-09T16:57:13.492Z,93820.69
2023-05-09T16:59:40.684Z,93822.81
2023-05-09T17:02:08.144Z,93825.84
2023-05-09T17:04:37.553Z,93833.28
2023-05-09T17:07:05.083Z,93841.53
2023-05-09T17:09:32.507Z,93838.69
2023-05-09T17:12:01.114Z,93835.59
2023-05-09T17:14:27.889Z,93842.94
2023-05-09T17:16:54.721Z,93845.03
2023-05-09T17:19:23.569Z,93839.78
2023-05-09T17:21:50.789Z,93843.28
2023-05-09T17:24:18.022Z,93847.47
2023-05-09T17:26:44.870Z,93839.91
2023-05-09T17:29:11.706Z,93843.13
2023-05-09T17:31:38.433Z,93846.25
2023-05-09T17:34:05.819Z,93850.50
2023-05-09T17:36:33.824Z,93842.09
2023-05-09T17:39:01.009Z,93839.22
2023-05-09T17:41:27.925Z,93862.03
2023-05-09T17:43:57.543Z,93855.75
2023-05-09T17:46:24.883Z,93838.44
2023-05-09T17:48:51.872Z,93849.97
2023-05-09T17:51:18.792Z,93864.13
2023-05-09T17:53:46.976Z,93861.00
2023-05-09T17:56:13.902Z,93861.25
2023-05-09T17:58:41.356Z,93857.59
2023-05-09T18:01:08.792Z,93863.88
2023-05-09T18:03:36.111Z,93866.22
2023-05-09T18:06:02.922Z,93853.13
2023-05-09T18:08:29.972Z,93853.13
2023-05-09T18:10:57.297Z,93866.19
2023-05-09T18:13:24.601Z,93864.09
2023-05-09T18:15:51.715Z,93865.16
2023-05-09T18:18:18.601Z,93866.44
2023-05-09T18:20:47.205Z,93869.03
2023-05-09T18:23:15.484Z,93877.13
2023-05-09T18:25:42.390Z,93867.09
2023-05-09T18:28:09.495Z,93872.84
2023-05-09T18:30:36.378Z,93874.91
2023-05-09T18:33:03.264Z,93880.09
2023-05-09T18:35:30.120Z,93877.69
2023-05-09T18:37:56.980Z,93883.19
2023-05-09T18:40:23.879Z,93870.84
2023-05-09T18:42:50.649Z,93880.50
2023-05-09T18:45:17.498Z,93876.75
2023-05-09T18:47:44.184Z,93883.13
2023-05-09T18:50:13.938Z,93882.56
2023-05-09T18:52:41.193Z,93884.66
2023-05-09T18:55:08.303Z,93876.19
2023-05-09T18:57:35.158Z,93881.38
2023-05-09T19:00:02.149Z,93876.88
2023-05-09T19:02:30.335Z,93891.53
2023-05-09T19:04:57.265Z,93883.69
2023-05-09T19:07:24.373Z,93884.47
2023-05-09T19:09:51.557Z,93884.13
2023-05-09T19:12:19.198Z,93899.56
2023-05-09T19:14:46.133Z,93892.47
2023-05-09T19:17:13.045Z,93891.69
2023-05-09T19:19:39.930Z,93898.66
2023-05-09T19:22:06.912Z,93890.81
2023-05-09T19:24:33.598Z,93890.91
2023-05-09T19:27:00.335Z,93898.50
2023-05-09T19:29:27.212Z,93899.31
2023-05-09T19:31:53.878Z,93908.22
2023-05-09T19:34:20.628Z,93894.56
2023-05-09T19:36:48.164Z,93894.28
2023-05-09T19:39:15.091Z,93894.75
2023-05-09T19:41:41.744Z,93901.56
2023-05-09T19:44:08.646Z,93905.63
2023-05-09T19:46:35.517Z,93902.34
2023-05-09T19:49:02.486Z,93890.63
2023-05-09T19:51:29.703Z,93889.34
2023-05-09T19:53:56.458Z,93905.44
2023-05-09T19:56:23.396Z,93891.56
2023-05-09T19:58:51.897Z,93899.03
2023-05-09T20:01:20.044Z,93898.47
2023-05-09T20:03:50.328Z,93889.41
2023-05-09T20:06:17.374Z,93892.41
2023-05-09T20:08:47.428Z,93891.31
2023-05-09T20:11:15.005Z,93883.28
2023-05-09T20:13:44.004Z,93889.59
2023-05-09T20:16:11.437Z,93891.34
2023-05-09T20:18:38.105Z,93894.69
2023-05-09T20:21:09.656Z,93895.16
2023-05-09T20:23:36.755Z,93894.59
2023-05-09T20:26:03.396Z,93896.88
2023-05-09T20:28:30.026Z,93895.16
2023-05-09T20:30:56.726Z,93888.19
2023-05-09T20:33:23.407Z,93895.53
2023-05-09T20:35:50.053Z,93893.97
2023-05-09T20:38:17.840Z,93883.47
2023-05-09T20:40:44.922Z,93896.50
2023-05-09T20:43:12.620Z,93887.09
2023-05-09T20:45:39.757Z,93883.84
2023-05-09T20:48:06.798Z,93885.44
2023-05-09T20:50:33.956Z,93886.94
2023-05-09T20:53:00.861Z,93884.72
2023-05-09T20:55:27.453Z,93883.06
2023-05-09T22:07:52.553Z,93845.31
2023-05-09T22:10:19.345Z,93844.13
2023-05-09T22:12:46.088Z,93845.59
2023-05-09T22:15:13.234Z,93836.75
2023-05-09T22:17:39.835Z,93837.56
2023-05-09T22:20:07.165Z,93837.81
2023-05-09T22:22:33.872Z,93840.09
2023-05-09T22:25:00.536Z,93837.97
2023-05-09T22:27:27.119Z,93833.69
2023-05-09T22:29:53.885Z,93827.78
2023-05-09T22:32:20.553Z,93823.50
2023-05-09T22:34:48.230Z,93830.28
2023-05-09T22:37:15.060Z,93831.75
2023-05-09T22:39:41.836Z,93828.63
2023-05-09T22:42:11.282Z,93824.66
2023-05-09T22:44:39.060Z,93807.72
2023-05-09T22:47:08.163Z,93830.97
2023-05-09T22:49:35.500Z,93820.56
2023-05-09T22:52:02.437Z,93818.41
2023-05-09T22:54:29.070Z,93815.81
2023-05-09T22:56:55.708Z,93819.44
2023-05-09T22:59:22.617Z,93810.44
2023-05-09T23:01:49.381Z,93812.00
2023-05-09T23:04:16.094Z,93807.56
2023-05-09T23:06:42.874Z,93810.63
2023-05-09T23:09:10.667Z,93803.41
2023-05-09T23:11:37.749Z,93809.28
2023-05-09T23:14:04.442Z,93791.56
2023-05-09T23:16:31.380Z,93800.69
2023-05-09T23:18:58.154Z,93792.81
2023-05-09T23:21:24.917Z,93791.69
2023-05-09T23:23:51.649Z,93799.91
2023-05-09T23:26:18.555Z,93781.75
2023-05-09T23:28:45.394Z,93789.31
2023-05-09T23:31:12.823Z,93774.59
2023-05-09T23:33:39.545Z,93785.00
2023-05-09T23:36:06.740Z,93777.09
2023-05-09T23:38:33.489Z,93780.13
2023-05-09T23:41:01.204Z,93774.81
2023-05-09T23:43:27.931Z,93775.72
2023-05-09T23:45:54.735Z,93772.13
2023-05-09T23:48:21.546Z,93767.03
2023-05-09T23:50:51.115Z,93763.88
2023-05-09T23:53:18.315Z,93768.59
2023-05-09T23:55:45.126Z,93768.13
2023-05-09T23:58:12.608Z,93768.81
